Time;durP1;ratioP1;P1;durP2;ratioP2;P2;SDS_P1;SDS_P2;PMS_P1;PMS_P2;Temp;Humidity;BMP_temperature;BMP_pressure;BME280_temperature;BME280_humidity;BME280_pressure;Samples;Min_cycle;Max_cycle;Signal;HPM_P1;HPM_P2
2022/03/03 00:01:29;;;;;;;26.47;11.47;;;;;;;-145.69;100.00;73382.81;5094039;28;20202;-76
2022/03/03 00:03:56;;;;;;;27.70;10.83;;;;;;;-145.69;100.00;73382.81;5109774;28;20216;-76
2022/03/03 00:06:30;;;;;;;29.53;11.80;;;;;;;-145.69;100.00;73392.75;5114218;28;20204;-76
2022/03/03 00:08:58;;;;;;;26.27;11.33;;;;;;;-145.69;100.00;73392.75;5114530;28;20208;-76
2022/03/03 00:11:25;;;;;;;28.50;12.07;;;;;;;-145.69;100.00;73388.78;5113846;28;20225;-76
2022/03/03 00:13:51;;;;;;;29.53;11.53;;;;;;;-145.69;100.00;73368.88;5098075;28;20194;-76
2022/03/03 00:16:18;;;;;;;28.27;12.00;;;;;;;-145.69;100.00;73362.88;5093774;28;20569;-76
2022/03/03 00:18:47;;;;;;;30.83;11.33;;;;;;;-145.69;100.00;73350.94;5093396;28;20226;-76
2022/03/03 00:21:15;;;;;;;26.97;11.40;;;;;;;-145.69;98.87;73337.00;5093595;28;20205;-76
2022/03/03 00:23:45;;;;;;;26.80;11.40;;;;;;;-145.69;98.66;73329.03;5106693;28;20198;-75
2022/03/03 00:26:11;;;;;;;27.57;11.50;;;;;;;-145.69;97.32;73323.06;5114051;28;20197;-76
2022/03/03 00:28:41;;;;;;;25.47;10.83;;;;;;;-145.69;98.04;73325.06;5113853;28;20221;-76
2022/03/03 00:31:09;;;;;;;28.67;11.23;;;;;;;-145.69;97.49;73325.06;5113802;28;20236;-75
2022/03/03 00:33:40;;;;;;;30.57;10.63;;;;;;;-145.69;97.39;73333.03;5100909;28;20202;-75
2022/03/03 00:36:10;;;;;;;22.80;10.87;;;;;;;-145.69;95.63;73333.03;5093530;28;20210;-75
2022/03/03 00:38:47;;;;;;;24.97;10.80;;;;;;;-145.69;95.29;73317.09;5093326;28;20676;-76
2022/03/03 00:41:18;;;;;;;23.93;10.17;;;;;;;-145.69;96.48;73321.09;5093233;28;20597;-76
2022/03/03 00:43:46;;;;;;;24.77;10.93;;;;;;;-145.69;95.47;73313.13;5101472;28;20203;-76
2022/03/03 00:46:13;;;;;;;28.17;12.63;;;;;;;-145.69;96.90;73313.13;5073684;28;20198;-76
2022/03/03 00:48:41;;;;;;;23.93;10.53;;;;;;;-145.69;97.76;73315.13;5073021;28;20194;-76
2022/03/03 00:51:07;;;;;;;27.60;11.40;;;;;;;-145.69;98.47;73323.06;5072017;28;20218;-76
2022/03/03 00:53:39;;;;;;;27.13;11.70;;;;;;;-145.69;99.23;73321.09;5096569;28;20208;-76
2022/03/03 00:56:13;;;;;;;28.00;11.93;;;;;;;-145.69;99.55;73309.13;5113291;28;20236;-75
2022/03/03 00:58:41;;;;;;;29.50;11.73;;;;;;;-145.69;97.11;73293.22;5113328;28;20211;-75
2022/03/03 01:01:08;;;;;;;28.30;11.50;;;;;;;-145.69;98.58;73291.22;5113599;28;20262;-76
2022/03/03 01:03:34;;;;;;;28.23;11.20;;;;;;;-145.69;97.34;73301.19;5101921;28;20194;-76
2022/03/03 01:06:02;;;;;;;31.20;12.13;;;;;;;-145.69;98.89;73309.13;5092612;28;20198;-76
2022/03/03 01:08:33;;;;;;;28.73;11.90;;;;;;;-145.69;98.02;73325.06;5092886;28;20233;-75
2022/03/03 01:11:00;;;;;;;29.67;10.87;;;;;;;-145.69;97.58;73315.13;5092799;28;20719;-75
2022/03/03 01:13:34;;;;;;;27.27;11.33;;;;;;;-145.69;97.59;73315.13;5102271;28;20701;-76
2022/03/03 01:16:03;;;;;;;35.23;12.33;;;;;;;-145.69;97.71;73311.13;5113214;28;20638;-75
2022/03/03 01:18:29;;;;;;;24.17;10.23;;;;;;;-145.69;97.34;73315.13;5099811;28;20264;-75
2022/03/03 01:21:02;;;;;;;26.80;11.30;;;;;;;-145.69;96.82;73309.13;5092759;28;20194;-75
2022/03/03 01:23:30;;;;;;;22.67;10.50;;;;;;;-145.69;96.95;73297.19;5092841;28;20592;-75
2022/03/03 01:26:02;;;;;;;22.67;9.93;;;;;;;-145.69;97.15;73293.22;5092666;28;20672;-75
2022/03/03 01:28:33;;;;;;;27.50;10.73;;;;;;;-145.69;97.21;73307.16;5103363;28;20220;-75
2022/03/03 01:31:05;;;;;;;25.53;10.47;;;;;;;-145.69;95.05;73313.13;5113176;28;20197;-75
2022/03/03 01:33:32;;;;;;;26.13;10.70;;;;;;;-145.69;96.49;73315.13;5113153;28;20292;-75
2022/03/03 01:35:59;;;;;;;23.17;9.33;;;;;;;-145.69;94.08;73289.22;5112977;28;20201;-75
2022/03/03 01:38:25;;;;;;;24.17;9.40;;;;;;;-145.69;94.13;73295.19;5102544;28;20607;-75
2022/03/03 01:40:54;;;;;;;25.37;10.20;;;;;;;-145.69;93.19;73299.19;5092774;28;20607;-75
2022/03/03 01:43:20;;;;;;;26.27;9.07;;;;;;;-145.69;95.30;73311.13;5092599;28;20206;-75
2022/03/03 01:45:48;;;;;;;25.97;8.93;;;;;;;-145.69;95.21;73305.16;5092749;28;20195;-75
2022/03/03 01:48:17;;;;;;;24.77;9.70;;;;;;;-145.69;93.74;73299.19;5099998;28;20555;-75
2022/03/03 01:50:45;;;;;;;25.03;9.67;;;;;;;-145.69;93.07;73291.22;5112923;28;20197;-75
2022/03/03 01:53:12;;;;;;;23.27;9.20;;;;;;;-145.69;92.53;73285.25;5113032;28;20221;-75
2022/03/03 01:55:38;;;;;;;23.97;9.63;;;;;;;-145.69;92.60;73289.22;5112834;28;20652;-75
2022/03/03 01:58:05;;;;;;;24.27;9.80;;;;;;;-145.69;92.39;73297.19;5106760;28;20190;-76
2022/03/03 02:00:37;;;;;;;26.77;9.23;;;;;;;-145.69;92.58;73289.22;5092623;28;20562;-75
2022/03/03 02:03:10;;;;;;;22.90;9.23;;;;;;;-145.69;92.51;73289.22;5093925;28;20205;-76
2022/03/03 02:05:36;;;;;;;28.27;9.43;;;;;;;-145.69;92.75;73285.25;5096237;28;20198;-75
2022/03/03 02:08:05;;;;;;;21.97;8.97;;;;;;;-145.69;91.98;73287.25;5101028;28;20650;-75
2022/03/03 02:10:32;;;;;;;23.00;9.07;;;;;;;-145.69;92.11;73281.25;5116605;28;20203;-75
2022/03/03 02:12:59;;;;;;;26.67;9.30;;;;;;;-145.69;91.57;73287.25;5114938;28;20754;-75
2022/03/03 02:15:27;;;;;;;22.20;9.13;;;;;;;-145.69;91.71;73291.22;5116116;28;20714;-75
2022/03/03 02:17:58;;;;;;;21.53;8.90;;;;;;;-145.69;90.21;73273.31;5114008;28;20247;-75
2022/03/03 02:20:31;;;;;;;23.60;9.80;;;;;;;-145.69;91.57;73265.34;5116113;28;20229;-75
2022/03/03 02:23:02;;;;;;;25.33;9.87;;;;;;;-145.69;91.34;73259.38;5116319;27;20258;-75
2022/03/03 02:25:28;;;;;;;21.13;8.80;;;;;;;-145.69;91.20;73261.34;5115771;28;20233;-75
2022/03/03 02:27:55;;;;;;;23.77;10.13;;;;;;;-145.69;91.66;73261.34;5075997;28;20197;-75
2022/03/03 02:30:21;;;;;;;24.60;9.80;;;;;;;-145.69;91.77;73249.41;5075448;28;20199;-75
2022/03/03 02:32:53;;;;;;;26.03;9.63;;;;;;;-145.69;92.15;73257.38;5075285;28;20227;-75
2022/03/03 02:35:20;;;;;;;22.27;9.53;;;;;;;-145.69;92.25;73251.41;5075402;28;20207;-75
2022/03/03 02:37:48;;;;;;;22.07;9.93;;;;;;;-145.69;91.69;73259.38;5113673;28;20197;-75
2022/03/03 02:40:20;;;;;;;22.10;9.03;;;;;;;-145.69;90.57;73251.41;5115827;28;20273;-75
2022/03/03 02:42:50;;;;;;;26.63;9.83;;;;;;;-145.69;89.99;73243.44;5115302;28;20236;-75
2022/03/03 02:45:17;;;;;;;23.43;9.53;;;;;;;-145.69;90.93;73255.38;5115701;28;20197;-75
2022/03/03 02:47:45;;;;;;;21.37;9.07;;;;;;;-145.69;90.59;73247.41;5096081;28;20194;-74
2022/03/03 02:50:12;;;;;;;25.97;9.93;;;;;;;-145.69;91.47;73243.44;5077322;28;20195;-75
2022/03/03 02:52:41;;;;;;;23.57;9.43;;;;;;;-145.69;91.94;73239.47;5074474;28;20689;-75
2022/03/03 02:55:10;;;;;;;24.70;9.03;;;;;;;-145.69;92.29;73247.41;5075020;28;20198;-75
2022/03/03 02:57:55;;;;;;;25.10;10.40;;;;;;;-145.69;92.65;73247.41;5107857;28;20723;-75
2022/03/03 03:00:23;;;;;;;21.03;9.27;;;;;;;-145.69;90.33;73239.47;5115404;28;20201;-75
2022/03/03 03:02:49;;;;;;;22.00;9.03;;;;;;;-145.69;90.14;73233.50;5115439;28;20764;-75
2022/03/03 03:05:16;;;;;;;25.53;9.53;;;;;;;-145.69;90.85;73235.47;5115305;28;20284;-75
2022/03/03 03:07:42;;;;;;;23.40;9.57;;;;;;;-145.69;92.17;73243.44;5098382;28;20656;-75
2022/03/03 03:10:16;;;;;;;24.27;9.10;;;;;;;-145.69;93.17;73245.44;5094983;28;20564;-75
2022/03/03 03:12:45;;;;;;;25.53;9.47;;;;;;;-145.69;92.93;73241.44;5094819;28;20230;-75
2022/03/03 03:15:11;;;;;;;27.33;10.70;;;;;;;-145.69;92.75;73237.47;5093984;28;20282;-75
2022/03/03 03:17:40;;;;;;;23.00;9.27;;;;;;;-145.69;93.33;73245.44;5110299;28;20667;-75
2022/03/03 03:20:08;;;;;;;22.80;9.77;;;;;;;-145.69;94.20;73263.34;5114806;28;20225;-75
2022/03/03 03:22:38;;;;;;;23.47;9.80;;;;;;;-145.69;94.75;73265.34;5115006;28;20250;-75
2022/03/03 03:25:07;;;;;;;23.17;9.80;;;;;;;-145.69;94.38;73275.28;5115177;28;20204;-75
2022/03/03 03:27:38;;;;;;;22.73;10.27;;;;;;;-145.69;94.21;73261.34;5099089;28;20198;-75
2022/03/03 03:30:06;;;;;;;32.03;10.20;;;;;;;-145.69;94.54;73267.34;5094624;28;20620;-75
2022/03/03 03:32:33;;;;;;;25.53;9.93;;;;;;;-145.69;94.15;73257.38;5094452;28;20229;-75
2022/03/03 03:35:00;;;;;;;23.97;10.00;;;;;;;-145.69;92.79;73249.41;5094453;28;20252;-75
2022/03/03 03:37:26;;;;;;;24.67;9.60;;;;;;;-145.69;92.21;73243.44;5107360;28;20189;-75
2022/03/03 03:39:52;;;;;;;23.50;9.33;;;;;;;-145.69;92.34;73241.44;5114579;28;20205;-75
2022/03/03 03:42:19;;;;;;;23.53;9.13;;;;;;;-145.69;91.49;73233.50;5114839;27;20201;-75
2022/03/03 03:44:48;;;;;;;21.83;8.67;;;;;;;-145.69;90.11;73233.50;5114723;28;20280;-75
2022/03/03 03:47:15;;;;;;;22.90;9.07;;;;;;;-145.69;90.10;73235.47;5102277;28;20634;-75
2022/03/03 03:49:41;;;;;;;24.03;9.87;;;;;;;-145.69;91.62;73271.31;5093676;28;20653;-75
2022/03/03 03:52:11;;;;;;;24.17;9.17;;;;;;;-145.69;92.16;73299.19;5094154;28;20222;-75
2022/03/03 03:54:39;;;;;;;21.13;9.20;;;;;;;-145.69;93.55;73325.06;5094227;28;20251;-75
2022/03/03 03:57:05;;;;;;;25.77;9.37;;;;;;;-145.69;94.23;73342.97;5103897;28;20196;-75
2022/03/03 03:59:32;;;;;;;21.40;8.97;;;;;;;-145.69;95.52;73356.91;5114432;28;20194;-75
2022/03/03 04:02:00;;;;;;;21.40;8.60;;;;;;;-145.69;98.00;73344.97;5114221;28;20193;-75
2022/03/03 04:04:26;;;;;;;20.37;7.87;;;;;;;-145.69;98.41;73362.88;5113612;28;20205;-75
2022/03/03 04:06:53;;;;;;;20.43;8.60;;;;;;;-145.69;98.66;73364.88;5105691;28;20284;-75
2022/03/03 04:09:22;;;;;;;24.17;9.07;;;;;;;-145.69;98.31;73368.88;5093974;28;20194;-75
2022/03/03 04:11:52;;;;;;;23.67;9.30;;;;;;;-145.69;99.08;73362.88;5093487;28;20209;-75
2022/03/03 04:14:18;;;;;;;24.83;9.67;;;;;;;-145.69;100.00;73344.97;5093214;28;20209;-74
2022/03/03 04:16:45;;;;;;;24.00;9.10;;;;;;;-145.69;98.23;73337.00;5098257;28;20194;-74
2022/03/03 04:19:13;;;;;;;26.83;9.97;;;;;;;-145.69;96.41;73315.13;5113767;28;20243;-74
2022/03/03 04:21:39;;;;;;;29.03;9.70;;;;;;;-145.69;96.15;73305.16;5113837;28;20221;-74
2022/03/03 04:24:10;;;;;;;22.53;9.03;;;;;;;-145.69;94.21;73269.31;5113876;28;20205;-74
2022/03/03 04:26:42;;;;;;;25.23;9.17;;;;;;;-145.69;92.24;73249.41;5109836;28;20229;-75
2022/03/03 04:29:13;;;;;;;26.30;9.67;;;;;;;-145.69;92.33;73235.47;5093398;28;20202;-74
2022/03/03 04:31:40;;;;;;;21.17;8.80;;;;;;;-145.69;91.45;73229.50;5093174;28;20664;-74
2022/03/03 04:34:06;;;;;;;23.53;8.60;;;;;;;-145.69;91.93;73233.50;5093351;28;20569;-75
2022/03/03 04:36:34;;;;;;;24.27;9.37;;;;;;;-145.69;92.10;73241.44;5095028;28;20198;-74
2022/03/03 04:39:03;;;;;;;23.40;9.47;;;;;;;-145.69;92.80;73261.34;5113555;28;20193;-74
2022/03/03 04:41:30;;;;;;;26.47;9.87;;;;;;;-145.69;94.14;73277.28;5112986;28;20201;-75
2022/03/03 04:43:56;;;;;;;23.27;9.60;;;;;;;-145.69;93.70;73269.31;5113504;28;20193;-75
2022/03/03 04:46:23;;;;;;;25.50;9.57;;;;;;;-145.69;94.60;73249.41;5109167;28;20197;-74
2022/03/03 04:48:49;;;;;;;26.67;10.10;;;;;;;-145.69;93.46;73243.44;5074293;28;20249;-75
2022/03/03 04:51:16;;;;;;;31.50;10.03;;;;;;;-145.69;92.89;73249.41;5073019;28;20195;-74
2022/03/03 04:53:44;;;;;;;26.93;10.57;;;;;;;-145.69;92.26;73247.41;5072902;28;20226;-74
2022/03/03 04:56:10;;;;;;;23.73;8.87;;;;;;;-145.69;93.79;73251.41;5072833;28;20666;-75
2022/03/03 04:58:38;;;;;;;25.20;9.77;;;;;;;-145.69;93.31;73255.38;5090623;28;20577;-75
2022/03/03 05:01:08;;;;;;;28.50;9.83;;;;;;;-145.69;94.95;73275.28;5092972;28;20194;-75
2022/03/03 05:03:35;;;;;;;25.63;9.53;;;;;;;-145.69;96.12;73289.22;5093055;28;20206;-75
2022/03/03 05:06:01;;;;;;;23.27;8.63;;;;;;;-145.69;95.00;73273.31;5093096;28;20330;-75
2022/03/03 05:08:28;;;;;;;28.57;9.33;;;;;;;-145.69;93.44;73259.38;5108556;28;20649;-75
2022/03/03 05:10:58;;;;;;;23.43;8.60;;;;;;;-145.69;93.50;73243.44;5112733;28;20594;-75
2022/03/03 05:13:25;;;;;;;23.77;8.90;;;;;;;-145.69;92.55;73225.53;5112964;28;20699;-75
2022/03/03 05:15:51;;;;;;;23.77;8.77;;;;;;;-145.69;91.37;73231.50;5113329;28;20209;-75
2022/03/03 05:18:18;;;;;;;19.70;9.00;;;;;;;-145.69;91.88;73243.44;5098555;28;20190;-75
2022/03/03 05:20:45;;;;;;;25.90;8.37;;;;;;;-145.69;92.48;73249.41;5092473;28;20224;-75
2022/03/03 05:23:11;;;;;;;19.30;8.67;;;;;;;-145.69;92.52;73233.50;5092694;28;20212;-74
2022/03/03 05:25:38;;;;;;;24.77;9.40;;;;;;;-145.69;93.23;73245.44;5092961;28;20206;-74
2022/03/03 05:28:06;;;;;;;20.33;8.23;;;;;;;-145.69;93.60;73265.34;5103608;28;20652;-75
2022/03/03 05:30:32;;;;;;;24.33;9.53;;;;;;;-145.69;95.33;73277.28;5113024;28;20208;-75
2022/03/03 05:33:01;;;;;;;22.83;9.77;;;;;;;-145.69;95.77;73293.22;5112654;28;20221;-75
2022/03/03 05:35:29;;;;;;;25.77;9.83;;;;;;;-145.69;96.81;73303.16;5113065;28;20193;-75
2022/03/03 05:37:55;;;;;;;28.73;9.70;;;;;;;-145.69;97.56;73297.19;5103926;28;20201;-74
2022/03/03 05:40:22;;;;;;;22.97;9.13;;;;;;;-145.69;97.34;73299.19;5096721;28;20255;-75
2022/03/03 05:42:50;;;;;;;25.37;10.00;;;;;;;-145.69;99.13;73309.13;5096508;28;20206;-75
2022/03/03 05:45:18;;;;;;;28.07;10.23;;;;;;;-145.69;99.71;73309.13;5096487;28;20264;-75
2022/03/03 05:47:46;;;;;;;34.67;10.27;;;;;;;-145.69;97.75;73289.22;5104425;28;20215;-74
2022/03/03 05:50:12;;;;;;;27.63;9.93;;;;;;;-145.69;98.38;73281.25;5116835;28;20202;-75
2022/03/03 05:52:41;;;;;;;29.77;10.03;;;;;;;-145.69;98.07;73289.22;5116203;28;20584;-75
2022/03/03 05:55:09;;;;;;;25.63;9.93;;;;;;;-145.69;97.89;73303.16;5116912;28;20300;-75
2022/03/03 05:57:41;;;;;;;28.47;10.60;;;;;;;-145.69;99.35;73313.13;5110343;28;20202;-74
2022/03/03 06:00:10;;;;;;;30.37;10.47;;;;;;;-145.69;97.73;73315.13;5096101;28;20202;-74
2022/03/03 06:02:42;;;;;;;25.93;9.57;;;;;;;-145.69;98.24;73301.19;5096009;28;20553;-74
2022/03/03 06:05:09;;;;;;;32.43;10.47;;;;;;;-145.69;96.49;73275.28;5096112;28;20198;-75
2022/03/03 06:07:45;;;;;;;30.63;10.23;;;;;;;-145.69;96.85;73285.25;5101882;28;20631;-75
2022/03/03 06:10:14;;;;;;;29.10;9.57;;;;;;;-145.69;97.06;73289.22;5116567;28;20210;-75
2022/03/03 06:12:47;;;;;;;26.47;9.83;;;;;;;-145.69;97.51;73285.25;5116459;28;20200;-75
2022/03/03 06:15:14;;;;;;;24.63;9.27;;;;;;;-145.69;97.28;73293.22;5116188;28;20208;-75
2022/03/03 06:17:44;;;;;;;24.60;9.23;;;;;;;-145.69;97.39;73275.28;5109748;28;20194;-75
2022/03/03 06:20:12;;;;;;;30.03;9.83;;;;;;;-145.69;97.24;73279.28;5095841;28;20230;-75
2022/03/03 06:22:40;;;;;;;26.20;9.63;;;;;;;-145.69;97.63;73297.19;5096028;28;20569;-75
2022/03/03 06:25:08;;;;;;;24.40;8.83;;;;;;;-145.69;98.17;73313.13;5095496;28;20289;-75
2022/03/03 06:27:35;;;;;;;26.43;10.03;;;;;;;-145.69;99.74;73315.13;5100543;28;20201;-75
2022/03/03 06:30:01;;;;;;;28.43;9.93;;;;;;;-145.69;99.87;73301.19;5116033;28;20232;-75
2022/03/03 06:32:28;;;;;;;26.80;9.97;;;;;;;-145.69;99.83;73297.19;5116009;28;20201;-75
2022/03/03 06:34:56;;;;;;;25.10;9.80;;;;;;;-145.69;99.11;73293.22;5116148;28;20200;-75
2022/03/03 06:37:23;;;;;;;25.97;9.57;;;;;;;-145.69;99.27;73289.22;5112425;28;20198;-75
2022/03/03 06:39:49;;;;;;;24.93;10.13;;;;;;;-145.69;99.27;73285.25;5095344;28;20210;-75
2022/03/03 06:42:18;;;;;;;26.80;10.33;;;;;;;-145.69;97.81;73251.41;5095455;28;20202;-75
2022/03/03 06:44:45;;;;;;;27.30;9.67;;;;;;;-145.69;96.74;73217.56;5095428;28;20981;-75
2022/03/03 06:47:11;;;;;;;25.80;9.30;;;;;;;-145.69;95.33;73207.59;5096828;28;20202;-75
2022/03/03 06:49:38;;;;;;;24.07;9.27;;;;;;;-145.69;95.02;73209.59;5115614;28;20293;-74
2022/03/03 06:52:08;;;;;;;32.13;10.57;;;;;;;-145.69;95.00;73195.66;5111866;28;20669;-75
2022/03/03 06:54:35;;;;;;;30.30;10.10;;;;;;;-145.69;94.85;73183.72;5087673;28;20218;-74
2022/03/03 06:57:02;;;;;;;29.83;11.00;;;;;;;-145.69;94.28;73173.75;5095079;28;20208;-74
2022/03/03 06:59:33;;;;;;;27.13;9.53;;;;;;;-145.69;93.33;73159.84;5094931;28;20201;-74
2022/03/03 07:02:00;;;;;;;30.80;10.30;;;;;;;-145.69;93.94;73143.91;5095220;28;20285;-74
2022/03/03 07:04:29;;;;;;;29.00;9.83;;;;;;;-145.69;95.10;73127.97;5102047;28;20193;-74
2022/03/03 07:06:56;;;;;;;26.73;9.87;;;;;;;-145.69;94.49;73114.03;5115148;27;20559;-74
2022/03/03 07:09:24;;;;;;;26.17;10.07;;;;;;;-145.69;92.51;73090.16;5115260;28;20197;-75
2022/03/03 07:11:50;;;;;;;23.10;9.80;;;;;;;-145.69;92.71;73080.19;5115276;28;20198;-75
2022/03/03 07:14:18;;;;;;;25.40;9.13;;;;;;;-145.69;92.58;73068.25;5109144;28;20558;-74
2022/03/03 07:16:47;;;;;;;22.43;9.47;;;;;;;-145.69;91.42;73038.41;5094879;28;20659;-74
2022/03/03 07:19:29;;;;;;;30.83;10.47;;;;;;;-145.69;90.53;73026.44;5094180;28;20561;-74
2022/03/03 07:22:07;;;;;;;31.23;10.20;;;;;;;-145.69;89.19;73016.50;5094529;28;20205;-74
2022/03/03 07:24:40;;;;;;;24.53;10.50;;;;;;;-145.69;88.53;73004.56;5103520;28;20205;-74
2022/03/03 07:27:09;;;;;;;26.73;12.00;;;;;;;-145.69;87.83;73000.56;5114116;28;20427;-77
2022/03/03 07:29:36;;;;;;;29.03;11.13;;;;;;;-145.69;88.15;72976.69;5115133;28;20197;-74
2022/03/03 07:32:06;;;;;;;27.77;11.10;;;;;;;-145.69;88.00;72976.69;5114980;28;20203;-76
2022/03/03 07:34:35;;;;;;;29.07;9.67;;;;;;;-145.69;87.26;72958.78;5110714;28;20707;-76
2022/03/03 07:37:05;;;;;;;25.47;9.47;;;;;;;-145.69;87.21;72946.81;5094058;28;20198;-75
2022/03/03 07:39:39;;;;;;;24.40;9.63;;;;;;;-145.69;86.70;72934.88;5094037;28;20202;-75
2022/03/03 07:42:06;;;;;;;23.63;9.00;;;;;;;-145.69;86.31;72924.94;5094212;28;20202;-75
2022/03/03 07:44:34;;;;;;;22.87;8.77;;;;;;;-145.69;87.17;72913.00;5097252;28;20201;-75
2022/03/03 07:47:01;;;;;;;21.43;8.70;;;;;;;-145.69;87.54;72909.00;5114695;28;20223;-75
2022/03/03 07:49:29;;;;;;;23.30;8.17;;;;;;;-145.69;84.07;72889.09;5114701;28;20208;-75
2022/03/03 07:51:56;;;;;;;23.57;7.90;;;;;;;-145.69;83.20;72863.22;5114378;28;20201;-75
2022/03/03 07:54:22;;;;;;;19.27;7.73;;;;;;;-145.69;81.36;72835.34;5112814;28;20229;-74
2022/03/03 07:56:56;;;;;;;21.77;8.50;;;;;;;-145.69;81.32;72805.50;5093974;28;20661;-76
2022/03/03 07:59:29;;;;;;;21.90;8.60;;;;;;;-145.69;80.96;72769.66;5093274;28;20198;-76
2022/03/03 08:01:58;;;;;;;20.80;7.87;;;;;;;-145.69;80.46;72747.78;5093627;28;20208;-76
2022/03/03 08:04:28;;;;;;;19.97;7.80;;;;;;;-145.69;78.61;72711.94;5095174;28;20200;-77
2022/03/03 08:06:59;;;;;;;20.97;8.43;;;;;;;-145.69;75.98;72680.09;5114525;28;20560;-76
2022/03/03 08:09:29;;;;;;;23.80;8.37;;;;;;;-145.69;76.94;72660.19;5114104;28;20205;-77
2022/03/03 08:11:59;;;;;;;18.17;7.93;;;;;;;-145.69;77.95;72620.38;5114127;28;20201;-76
2022/03/03 08:14:26;;;;;;;21.63;8.27;;;;;;;-145.69;73.54;72588.53;5112380;28;20316;-76
2022/03/03 08:16:52;;;;;;;23.03;8.43;;;;;;;-145.69;69.20;72558.66;5093950;28;20202;-77
2022/03/03 08:19:21;;;;;;;20.87;8.30;;;;;;;-145.69;67.12;72532.78;5093645;28;20233;-77
2022/03/03 08:21:49;;;;;;;21.03;8.27;;;;;;;-145.69;68.07;72512.91;5093681;28;20213;-76
2022/03/03 08:24:16;;;;;;;26.33;8.70;;;;;;;-145.69;67.87;72481.03;5093567;28;20534;-78
2022/03/03 08:26:43;;;;;;;19.87;7.97;;;;;;;-145.69;66.02;72467.13;5113092;28;20213;-79
2022/03/03 08:29:11;;;;;;;22.77;8.33;;;;;;;-145.69;65.37;72449.19;5106992;28;20202;-78
2022/03/03 08:31:41;;;;;;;19.00;7.60;;;;;;;-145.69;62.96;72425.31;5073329;28;20618;-77
2022/03/03 08:34:13;;;;;;;20.20;8.03;;;;;;;-145.69;61.80;72401.44;5072796;28;20230;-79
2022/03/03 08:36:45;;;;;;;26.40;9.63;;;;;;;-145.69;58.60;72387.50;5111591;28;20205;-79
2022/03/03 08:39:14;;;;;;;18.27;7.97;;;;;;;-145.69;56.42;72361.63;5113617;28;20198;-79
2022/03/03 08:41:43;;;;;;;18.67;8.07;;;;;;;-145.69;54.93;72341.72;5114002;27;20197;-78
2022/03/03 08:44:12;;;;;;;22.93;8.23;;;;;;;-145.69;54.16;72319.81;5113526;28;20201;-78
2022/03/03 08:46:40;;;;;;;19.93;8.37;;;;;;;-145.69;54.12;72305.91;5112789;28;20201;-78
2022/03/03 08:49:08;;;;;;;18.60;7.80;;;;;;;-145.69;51.55;72287.97;5113649;28;20212;-79
2022/03/03 08:51:34;;;;;;;21.07;8.03;;;;;;;-145.69;51.89;72274.06;5113391;28;20246;-79
2022/03/03 08:54:01;;;;;;;22.70;8.43;;;;;;;-145.69;50.66;72250.16;5113631;27;20225;-78
2022/03/03 08:56:28;;;;;;;20.90;7.77;;;;;;;-145.69;51.31;72226.28;5096170;28;20194;-78
2022/03/03 08:58:55;;;;;;;19.53;8.53;;;;;;;-145.69;52.86;72198.41;5091649;28;20221;-80
2022/03/03 09:01:23;;;;;;;21.13;8.93;;;;;;;-145.69;52.44;72158.63;5093178;28;20202;-77
2022/03/03 09:03:50;;;;;;;22.73;8.40;;;;;;;-145.69;52.72;72128.75;5092555;28;20233;-77
2022/03/03 09:06:17;;;;;;;27.80;10.27;;;;;;;-145.69;51.60;72124.78;5092220;28;20676;-77
2022/03/03 09:08:43;;;;;;;24.73;9.87;;;;;;;-145.69;51.00;72116.81;5093138;28;20201;-77
2022/03/03 09:11:10;;;;;;;28.17;10.67;;;;;;;-145.69;52.62;72106.88;5093016;28;20649;-77
2022/03/03 09:13:37;;;;;;;27.37;10.60;;;;;;;-145.69;53.03;72110.84;5095677;28;20194;-76
2022/03/03 09:16:04;;;;;;;26.60;10.97;;;;;;;-145.69;54.82;72110.84;5097245;28;20247;-77
2022/03/03 09:18:33;;;;;;;29.37;12.13;;;;;;;-145.69;54.68;72118.81;5097066;28;20546;-77
2022/03/03 09:21:00;;;;;;;31.25;13.75;;;;;;;-145.69;55.04;72110.84;5096032;28;20443;-76
2022/03/03 09:23:27;;;;;;;28.90;12.53;;;;;;;-145.69;54.51;72120.81;5104535;28;20194;-77
2022/03/03 09:25:53;;;;;;;32.73;11.67;;;;;;;-145.69;55.66;72122.78;5117609;28;20200;-76
2022/03/03 09:28:20;;;;;;;26.03;11.13;;;;;;;-145.69;56.10;72134.72;5115478;28;20189;-76
2022/03/03 09:30:47;;;;;;;30.10;12.17;;;;;;;-145.69;56.02;72124.78;5117528;28;20208;-77
2022/03/03 09:33:14;;;;;;;29.30;11.97;;;;;;;-145.69;56.98;72130.75;5111754;28;20198;-76
2022/03/03 09:35:41;;;;;;;32.10;11.80;;;;;;;-145.69;58.60;72128.75;5096877;28;20244;-77
2022/03/03 09:38:08;;;;;;;32.00;11.93;;;;;;;-145.69;58.18;72114.81;5101407;28;20664;-77
2022/03/03 09:40:34;;;;;;;27.10;11.03;;;;;;;-145.69;59.58;72108.84;5096993;28;20193;-77
2022/03/03 09:43:04;;;;;;;29.07;12.00;;;;;;;-145.69;57.45;72096.91;5096828;28;20198;-77
2022/03/03 09:45:32;;;;;;;28.40;11.30;;;;;;;-145.69;57.37;72086.97;5093777;28;20198;-77
2022/03/03 09:48:00;;;;;;;24.00;11.10;;;;;;;-145.69;59.06;72077.00;5096474;28;20653;-76
2022/03/03 09:50:28;;;;;;;28.67;11.47;;;;;;;-145.69;57.33;72061.09;5096183;28;20228;-76
2022/03/03 09:52:56;;;;;;;30.87;11.77;;;;;;;-145.69;57.01;72057.13;5096445;28;20210;-77
2022/03/03 09:55:23;;;;;;;32.20;12.53;;;;;;;-145.69;55.82;72047.16;5096551;28;20619;-77
2022/03/03 09:57:50;;;;;;;33.17;12.40;;;;;;;-145.69;57.00;72031.25;5098192;28;20723;-77
2022/03/03 10:00:18;;;;;;;30.13;12.43;;;;;;;-145.69;56.04;72031.25;5116628;28;20221;-77
2022/03/03 10:02:54;;;;;;;31.33;12.37;;;;;;;-145.69;54.31;72035.22;5116273;28;20223;-77
2022/03/03 10:05:28;;;;;;;30.00;12.80;;;;;;;-145.69;55.11;72035.22;5116654;28;20698;-78
2022/03/03 10:08:02;;;;;;;28.37;11.10;;;;;;;-145.69;53.27;72015.31;5113936;28;20201;-77
2022/03/03 10:10:28;;;;;;;31.90;11.70;;;;;;;-145.69;54.23;72005.38;5096203;28;20211;-77
2022/03/03 10:12:58;;;;;;;24.23;10.77;;;;;;;-145.69;56.43;71989.44;5095763;28;20198;-77
2022/03/03 10:15:29;;;;;;;25.77;10.93;;;;;;;-145.69;52.00;72003.38;5096294;28;20226;-77
2022/03/03 10:17:57;;;;;;;28.53;9.57;;;;;;;-145.69;52.77;71995.41;5098492;28;20205;-77
2022/03/03 10:20:24;;;;;;;22.97;10.23;;;;;;;-145.69;53.10;71987.47;5116441;28;20209;-77
2022/03/03 10:22:57;;;;;;;29.37;10.70;;;;;;;-145.69;53.43;71987.47;5116351;28;20226;-77
2022/03/03 10:25:30;;;;;;;26.57;11.20;;;;;;;-145.69;52.31;71979.50;5116036;28;20205;-77
2022/03/03 10:27:57;;;;;;;24.67;10.57;;;;;;;-145.69;53.13;71969.53;5113813;27;20193;-77
2022/03/03 10:30:23;;;;;;;29.10;11.57;;;;;;;-145.69;53.17;71971.53;5095918;28;20206;-77
2022/03/03 10:32:50;;;;;;;25.27;10.90;;;;;;;-145.69;51.47;71949.66;5095673;28;20673;-77
2022/03/03 10:35:18;;;;;;;32.17;10.77;;;;;;;-145.69;50.64;71945.66;5095895;28;20240;-77
2022/03/03 10:37:47;;;;;;;24.37;10.27;;;;;;;-145.69;51.90;71941.69;5095849;28;20198;-77
2022/03/03 10:40:15;;;;;;;26.60;11.10;;;;;;;-145.69;52.88;71925.75;5075772;28;20210;-77
2022/03/03 10:42:45;;;;;;;27.27;11.60;;;;;;;-145.69;52.08;71927.75;5075413;28;20212;-77
2022/03/03 10:45:13;;;;;;;27.47;11.37;;;;;;;-145.69;52.74;71923.78;5075283;28;20199;-77
2022/03/03 10:47:45;;;;;;;32.37;11.73;;;;;;;-145.69;52.54;71919.78;5075413;28;20278;-77
2022/03/03 10:50:12;;;;;;;27.03;10.80;;;;;;;-145.69;52.37;71903.88;5113600;28;20201;-78
2022/03/03 10:52:40;;;;;;;30.07;12.33;;;;;;;-145.69;53.20;71897.91;5115647;28;20802;-77
2022/03/03 10:55:12;;;;;;;33.93;11.37;;;;;;;-145.69;51.87;71891.94;5115834;28;20221;-77
2022/03/03 10:57:41;;;;;;;26.07;10.27;;;;;;;-145.69;50.52;71889.94;5115708;28;20664;-77
2022/03/03 11:00:12;;;;;;;28.93;10.90;;;;;;;-145.69;49.61;71883.97;5097195;28;20194;-77
2022/03/03 11:02:41;;;;;;;25.30;10.90;;;;;;;-145.69;53.36;71868.06;5095287;28;20202;-78
2022/03/03 11:05:10;;;;;;;29.43;12.53;;;;;;;-145.69;51.55;71872.03;5085396;28;20253;-78
2022/03/03 11:07:37;;;;;;;29.63;11.70;;;;;;;-145.69;52.38;71864.06;5075127;28;20195;-77
2022/03/03 11:10:05;;;;;;;28.23;11.97;;;;;;;-145.69;52.59;71844.16;5107834;28;20229;-77